Time;durP1;ratioP1;P1;durP2;ratioP2;P2;SDS_P1;SDS_P2;PMS_P1;PMS_P2;Temp;Humidity;BMP_temperature;BMP_pressure;BME280_temperature;BME280_humidity;BME280_pressure;Samples;Min_cycle;Max_cycle;Signal;HPM_P1;HPM_P2
2023/05/09 00:01:12;;;;;;;9.10;4.50;;;;;;;14.56;91.08;101697.13;5093911;28;20064;-81
2023/05/09 00:03:38;;;;;;;10.93;5.30;;;;;;;14.53;91.14;101694.56;5093575;28;20028;-81
2023/05/09 00:06:05;;;;;;;8.30;4.32;;;;;;;14.54;91.32;101695.44;5092777;28;20027;-81
2023/05/09 00:08:30;;;;;;;;;;;;;;;14.49;92.11;101688.53;5093846;28;20460;-81
2023/05/09 00:10:56;;;;;;;8.30;4.40;;;;;;;14.42;91.65;101680.84;5093773;28;19915;-81
2023/05/09 00:13:22;;;;;;;8.90;4.37;;;;;;;14.33;92.24;101666.22;5092434;28;20032;-81
2023/05/09 00:15:47;;;;;;;10.23;4.68;;;;;;;14.37;91.62;101675.69;5093294;28;20472;-81
2023/05/09 00:18:13;;;;;;;8.00;4.33;;;;;;;14.36;91.64;101680.09;5093576;28;20028;-81
2023/05/09 00:20:39;;;;;;;7.53;4.23;;;;;;;14.36;91.32;101680.09;5092412;28;20028;-81
2023/05/09 00:23:05;;;;;;;9.07;4.40;;;;;;;14.40;93.42;101680.88;5093415;28;20376;-81
2023/05/09 00:25:30;;;;;;;10.00;4.87;;;;;;;14.37;92.30;101688.75;5092976;28;20024;-81
2023/05/09 00:27:56;;;;;;;10.47;4.90;;;;;;;14.36;91.52;101676.59;5092651;28;20097;-81
2023/05/09 00:30:21;;;;;;;8.33;4.37;;;;;;;14.37;91.77;101670.47;5093336;28;20012;-81
2023/05/09 00:32:47;;;;;;;8.17;4.40;;;;;;;14.36;91.72;101672.25;5093673;28;20024;-82
2023/05/09 00:35:12;;;;;;;7.30;3.90;;;;;;;14.34;92.02;101660.97;5091923;28;20020;-82
2023/05/09 00:37:37;;;;;;;8.10;4.20;;;;;;;14.31;91.71;101658.41;5092068;28;20484;-82
2023/05/09 00:40:05;;;;;;;8.63;4.13;;;;;;;14.34;92.21;101660.13;5092248;28;20368;-81
2023/05/09 00:42:30;;;;;;;8.73;4.25;;;;;;;14.29;91.70;101652.38;5093030;28;20035;-81
2023/05/09 00:44:55;;;;;;;8.33;4.33;;;;;;;14.31;92.03;101650.56;5093209;28;20032;-82
2023/05/09 00:47:23;;;;;;;7.67;3.90;;;;;;;14.29;91.82;101654.97;5091896;28;20464;-81
2023/05/09 00:49:49;;;;;;;7.35;3.88;;;;;;;14.31;91.82;101661.00;5092838;28;20032;-81
2023/05/09 00:52:14;;;;;;;8.38;3.95;;;;;;;14.28;91.90;101649.75;5093436;28;20102;-81
2023/05/09 00:54:39;;;;;;;7.27;3.70;;;;;;;14.32;91.98;101657.50;5090917;28;20048;-81
2023/05/09 00:57:05;;;;;;;7.43;3.70;;;;;;;14.33;92.35;101654.00;5093007;28;20498;-81
2023/05/09 00:59:30;;;;;;;6.53;3.63;;;;;;;14.32;92.05;101654.91;5092552;28;20028;-81
2023/05/09 01:01:56;;;;;;;5.97;3.30;;;;;;;14.30;92.47;101646.22;5092259;28;20472;-81
2023/05/09 01:04:21;;;;;;;5.33;3.30;;;;;;;14.29;92.33;101639.31;5092670;28;20033;-81
2023/05/09 01:07:20;;;;;;;6.17;3.67;;;;;;;14.31;92.48;101636.66;5092797;28;20032;-82
2023/05/09 01:09:59;;;;;;;6.40;3.45;;;;;;;14.29;92.15;101630.59;5053859;28;20051;-81
2023/05/09 01:12:50;;;;;;;6.25;3.47;;;;;;;14.30;92.09;101632.31;5086033;28;20055;-81
2023/05/09 01:15:31;;;;;;;6.20;3.30;;;;;;;14.30;91.89;101622.72;5092169;28;20379;-81
2023/05/09 01:18:02;;;;;;;6.55;3.60;;;;;;;14.29;92.13;101614.94;5093067;28;20024;-81
2023/05/09 01:20:45;;;;;;;6.72;4.00;;;;;;;14.31;92.00;101610.56;5092414;28;20051;-81
2023/05/09 01:23:48;;;;;;;6.70;3.75;;;;;;;14.31;92.07;101606.19;5091444;28;20028;-82
2023/05/09 01:26:31;;;;;;;7.70;3.97;;;;;;;14.34;92.37;101598.28;5092573;28;20056;-81
2023/05/09 01:29:25;;;;;;;6.75;3.83;;;;;;;14.32;91.92;101594.00;5092435;28;20044;-81
2023/05/09 01:31:53;;;;;;;6.43;3.92;;;;;;;14.33;91.91;101587.88;5092173;28;20036;-81
2023/05/09 01:34:21;;;;;;;6.70;3.80;;;;;;;14.32;92.02;101587.00;5091962;28;20036;-82
2023/05/09 01:36:50;;;;;;;6.72;3.65;;;;;;;14.31;91.95;101582.69;5091889;28;20120;-81
2023/05/09 01:39:18;;;;;;;7.75;4.07;;;;;;;14.33;92.03;101591.34;5092493;28;20495;-81
2023/05/09 01:41:44;;;;;;;6.63;3.50;;;;;;;14.30;91.92;101575.72;5092418;28;20031;-81
2023/05/09 01:44:12;;;;;;;5.93;3.63;;;;;;;14.29;92.21;101578.38;5092058;28;20036;-81
2023/05/09 01:46:39;;;;;;;5.55;3.50;;;;;;;14.27;92.30;101570.59;5092336;28;20056;-81
2023/05/09 01:49:07;;;;;;;6.20;3.60;;;;;;;14.26;92.49;101566.25;5092410;28;20169;-81
2023/05/09 01:51:33;;;;;;;5.22;3.40;;;;;;;14.24;92.07;101567.19;5091338;28;20113;-81
2023/05/09 01:54:00;;;;;;;7.90;3.55;;;;;;;14.19;92.60;101556.78;5092455;28;20062;-81
2023/05/09 01:56:26;;;;;;;7.57;3.95;;;;;;;14.17;92.22;101558.59;5091239;28;20471;-82
2023/05/09 01:58:54;;;;;;;5.67;3.50;;;;;;;14.17;92.11;101559.44;5091546;28;20042;-81
2023/05/09 02:01:21;;;;;;;5.53;3.15;;;;;;;14.15;92.11;101561.22;5092252;28;20308;-81
2023/05/09 02:03:51;;;;;;;5.88;3.38;;;;;;;14.13;92.65;101560.38;5092458;28;20103;-81
2023/05/09 02:06:19;;;;;;;6.53;3.78;;;;;;;14.09;92.77;101557.88;5093336;28;20028;-81
2023/05/09 02:08:46;;;;;;;6.55;3.50;;;;;;;14.03;92.81;101556.22;5096241;28;20103;-82
2023/05/09 02:11:11;;;;;;;4.32;2.85;;;;;;;13.99;93.10;101559.81;5095822;28;20388;-81
2023/05/09 02:13:37;;;;;;;5.93;3.43;;;;;;;13.95;92.91;101551.16;5094579;28;20028;-81
2023/05/09 02:16:03;;;;;;;5.10;3.20;;;;;;;13.94;93.35;101557.28;5095568;28;20032;-81
2023/05/09 02:18:28;;;;;;;5.53;3.05;;;;;;;13.90;93.19;101553.00;5094669;28;20099;-81
2023/05/09 02:20:53;;;;;;;3.87;2.70;;;;;;;13.87;93.50;101551.31;5096021;28;20436;-82
2023/05/09 02:23:19;;;;;;;5.77;3.40;;;;;;;13.86;93.12;101554.78;5095788;28;20024;-81
2023/05/09 02:25:45;;;;;;;5.43;3.30;;;;;;;13.86;92.99;101560.00;5094972;28;20043;-81
2023/05/09 02:28:12;;;;;;;5.80;3.40;;;;;;;13.88;93.00;101567.81;5095028;28;20051;-82
2023/05/09 02:30:43;;;;;;;6.03;3.60;;;;;;;13.88;92.93;101559.97;5094311;28;20107;-81
2023/05/09 02:33:11;;;;;;;6.13;3.60;;;;;;;13.84;93.24;101559.19;5093462;28;20020;-81
2023/05/09 02:35:38;;;;;;;6.10;3.75;;;;;;;13.84;93.05;101560.94;5093441;28;20489;-81
2023/05/09 02:38:05;;;;;;;6.20;3.47;;;;;;;13.86;93.06;101561.75;5094209;28;20460;-82
2023/05/09 02:40:32;;;;;;;6.15;3.40;;;;;;;13.85;93.24;101562.63;5093122;28;20032;-82
2023/05/09 02:42:57;;;;;;;5.60;3.30;;;;;;;13.83;93.26;101556.59;5094401;28;20020;-82
2023/05/09 02:45:22;;;;;;;5.47;3.20;;;;;;;13.81;93.16;101556.63;5093954;28;20050;-82
2023/05/09 02:47:48;;;;;;;5.17;3.20;;;;;;;13.80;93.40;101549.66;5092249;28;20039;-81
2023/05/09 02:50:13;;;;;;;4.50;3.10;;;;;;;13.73;93.31;101537.63;5094386;28;20013;-82
2023/05/09 02:52:38;;;;;;;5.80;3.50;;;;;;;13.74;93.86;101545.41;5093769;28;20506;-81
2023/05/09 02:55:06;;;;;;;4.87;3.23;;;;;;;13.73;93.89;101542.84;5093193;28;20472;-81
2023/05/09 02:57:31;;;;;;;5.50;3.20;;;;;;;13.68;93.67;101540.31;5093551;28;20020;-82
2023/05/09 02:59:56;;;;;;;5.70;3.03;;;;;;;13.67;93.51;101537.75;5093948;28;20380;-82
2023/05/09 03:02:22;;;;;;;5.30;3.10;;;;;;;13.62;93.77;101530.00;5093252;28;20024;-81
2023/05/09 03:04:48;;;;;;;7.37;3.93;;;;;;;13.58;95.04;101523.09;5093788;28;20464;-82
2023/05/09 03:07:13;;;;;;;6.93;3.60;;;;;;;13.55;94.79;101523.16;5093952;28;20028;-82
2023/05/09 03:09:38;;;;;;;6.07;3.30;;;;;;;13.50;94.15;101514.56;5092735;28;20573;-81
2023/05/09 03:12:04;;;;;;;5.10;3.17;;;;;;;13.44;94.41;101510.31;5093725;28;20028;-81
2023/05/09 03:14:30;;;;;;;5.63;3.03;;;;;;;13.39;94.15;101518.22;5093681;28;20048;-81
2023/05/09 03:16:55;;;;;;;6.10;3.43;;;;;;;13.42;94.35;101512.91;5092981;28;20031;-81
2023/05/09 03:19:21;;;;;;;4.90;3.10;;;;;;;13.43;93.89;101513.81;5092767;28;20042;-81
2023/05/09 03:21:46;;;;;;;5.10;3.13;;;;;;;13.39;94.17;101510.38;5092545;28;20032;-82
2023/05/09 03:24:11;;;;;;;6.30;3.20;;;;;;;13.39;93.82;101506.88;5093481;28;20039;-81
2023/05/09 03:26:36;;;;;;;4.73;3.17;;;;;;;13.38;93.96;101511.25;5092960;28;20181;-81
2023/05/09 03:29:02;;;;;;;7.07;3.80;;;;;;;13.39;93.76;101504.28;5056588;28;1049516;-81
2023/05/09 03:31:30;;;;;;;6.53;3.80;;;;;;;13.40;94.02;101509.47;5094076;28;20058;-81
2023/05/09 03:33:56;;;;;;;5.28;3.47;;;;;;;13.40;94.42;101506.88;5093939;28;20024;-82
2023/05/09 03:36:22;;;;;;;5.53;3.37;;;;;;;13.39;94.53;101513.00;5093024;28;20066;-81
2023/05/09 03:38:47;;;;;;;4.40;3.00;;;;;;;13.40;94.57;101516.44;5094255;28;20077;-81
2023/05/09 03:41:16;;;;;;;4.60;3.00;;;;;;;13.35;95.05;101500.84;5094089;28;20039;-81
2023/05/09 03:43:41;;;;;;;5.10;2.92;;;;;;;13.34;95.04;101500.88;5093253;28;20020;-81
2023/05/09 03:46:12;;;;;;;5.13;3.10;;;;;;;13.29;94.72;101491.38;5093752;28;20384;-82
2023/05/09 03:48:37;;;;;;;6.15;3.22;;;;;;;13.26;94.75;101483.59;5093531;28;20507;-81
2023/05/09 03:51:02;;;;;;;4.87;3.00;;;;;;;13.37;94.92;101495.59;5093101;28;20028;-81
2023/05/09 03:53:28;;;;;;;4.97;3.03;;;;;;;13.33;94.93;101489.59;5093895;28;20050;-81
2023/05/09 03:55:53;;;;;;;3.93;2.80;;;;;;;13.35;95.08;101490.44;5094115;28;20495;-82
2023/05/09 03:58:18;;;;;;;4.77;3.00;;;;;;;13.37;95.08;101485.19;5093403;28;20027;-81
2023/05/09 04:00:44;;;;;;;5.60;2.97;;;;;;;13.36;95.37;101480.84;5092951;28;20403;-82
2023/05/09 04:03:10;;;;;;;5.00;2.80;;;;;;;13.33;95.61;101471.34;5093973;28;20050;-82
2023/05/09 04:05:35;;;;;;;4.40;2.70;;;;;;;13.29;95.26;101477.47;5092558;28;20020;-81
2023/05/09 04:08:01;;;;;;;5.33;3.20;;;;;;;13.32;95.14;101482.66;5093987;28;20070;-81
2023/05/09 04:10:27;;;;;;;5.70;3.60;;;;;;;13.34;95.04;101475.66;5093331;28;20078;-81
2023/05/09 04:12:52;;;;;;;7.07;3.83;;;;;;;13.32;95.46;101467.00;5092514;28;20012;-81
2023/05/09 04:15:17;;;;;;;5.70;3.40;;;;;;;13.38;95.09;101468.66;5093551;28;20032;-82
2023/05/09 04:17:46;;;;;;;8.77;4.60;;;;;;;13.31;96.01;101460.06;5093496;28;20054;-81
2023/05/09 04:20:11;;;;;;;10.68;5.18;;;;;;;13.27;98.28;101456.66;5113153;28;20437;-82
2023/05/09 04:22:37;;;;;;;11.40;5.43;;;;;;;13.24;96.69;101453.25;5113618;28;20034;-81
2023/05/09 04:25:06;;;;;;;9.23;4.63;;;;;;;13.21;96.03;101451.56;5107188;28;20054;-81
2023/05/09 04:27:31;;;;;;;8.88;4.57;;;;;;;13.22;96.35;101448.06;5093119;28;20072;-82
2023/05/09 04:29:56;;;;;;;8.37;4.00;;;;;;;13.24;96.77;101450.63;5093722;28;20044;-82
2023/05/09 04:32:22;;;;;;;6.17;3.77;;;;;;;13.27;96.30;101450.59;5092371;28;20483;-81
2023/05/09 04:34:48;;;;;;;7.30;3.80;;;;;;;13.27;97.10;101455.81;5091972;28;20032;-81
2023/05/09 04:37:13;;;;;;;9.95;5.00;;;;;;;13.31;98.85;101452.25;5092809;28;20073;-81
2023/05/09 04:39:38;;;;;;;9.33;4.83;;;;;;;13.33;97.36;101457.47;5092511;28;20024;-81
2023/05/09 04:42:04;;;;;;;7.17;4.10;;;;;;;13.35;97.38;101448.72;5092880;28;20395;-81
2023/05/09 04:44:30;;;;;;;6.33;3.90;;;;;;;13.37;96.90;101444.34;5093062;28;20031;-81
2023/05/09 04:46:56;;;;;;;8.17;4.20;;;;;;;13.41;96.76;101448.63;5092549;28;20023;-81
2023/05/09 04:49:22;;;;;;;;;;;;;;;13.44;96.70;101442.53;5093161;28;20035;-81
2023/05/09 04:51:56;;;;;;;7.93;4.07;;;;;;;13.43;97.62;101436.44;5092014;28;19923;-81
2023/05/09 04:54:21;;;;;;;6.07;3.58;;;;;;;13.46;96.64;101430.28;5091859;28;20040;-81
2023/05/09 04:56:46;;;;;;;6.17;3.50;;;;;;;13.52;97.41;101434.53;5093160;28;20073;-81
2023/05/09 04:59:12;;;;;;;4.90;3.20;;;;;;;13.53;96.90;101428.44;5092749;28;20032;-81
2023/05/09 05:01:37;;;;;;;6.13;3.50;;;;;;;13.57;97.18;101430.09;5091744;28;20035;-81
2023/05/09 05:04:02;;;;;;;4.73;3.10;;;;;;;13.60;96.50;101427.47;5092584;28;20024;-82
2023/05/09 05:06:28;;;;;;;4.67;3.23;;;;;;;13.66;96.48;101421.25;5092321;28;20810;-81
2023/05/09 05:08:53;;;;;;;6.00;3.43;;;;;;;13.71;95.92;101424.63;5092159;28;20031;-81
2023/05/09 05:11:19;;;;;;;6.50;3.93;;;;;;;13.72;96.58;101410.69;5092846;28;20097;-81
2023/05/09 05:13:44;;;;;;;5.85;3.58;;;;;;;13.68;96.68;101399.47;5092820;28;20038;-81
2023/05/09 05:16:09;;;;;;;10.93;5.23;;;;;;;13.72;97.12;101395.94;5091886;28;20020;-81
2023/05/09 05:18:35;;;;;;;10.73;5.30;;;;;;;13.73;96.40;101394.16;5092462;28;20121;-81
2023/05/09 05:21:00;;;;;;;8.93;4.80;;;;;;;13.74;97.38;101388.91;5092572;28;20028;-81
2023/05/09 05:23:26;;;;;;;7.57;4.37;;;;;;;13.73;97.59;101384.59;5091472;28;20024;-81
2023/05/09 05:25:51;;;;;;;7.00;4.00;;;;;;;13.74;97.33;101385.44;5092778;28;20020;-81
2023/05/09 05:28:16;;;;;;;6.27;3.70;;;;;;;13.76;96.65;101383.66;5092183;28;20056;-81
2023/05/09 05:30:42;;;;;;;9.37;4.73;;;;;;;13.79;96.37;101380.13;5090797;28;20166;-81
2023/05/09 05:33:07;;;;;;;6.40;3.90;;;;;;;13.73;97.37;101373.28;5092188;28;20036;-81
2023/05/09 05:35:32;;;;;;;7.33;4.17;;;;;;;13.84;97.01;101378.31;5091498;28;20479;-81
2023/05/09 05:37:58;;;;;;;6.40;3.60;;;;;;;13.87;97.45;101375.63;5092333;28;20361;-80
2023/05/09 05:40:23;;;;;;;7.60;4.30;;;;;;;13.91;96.91;101377.28;5092333;28;20031;-81
2023/05/09 05:42:48;;;;;;;10.20;5.30;;;;;;;13.96;98.54;101367.59;5097825;28;20035;-81
2023/05/09 05:45:13;;;;;;;8.73;4.90;;;;;;;13.99;97.74;101372.75;5096037;28;20058;-81
2023/05/09 05:47:39;;;;;;;9.93;5.30;;;;;;;14.03;97.91;101363.09;5095772;28;20039;-81
2023/05/09 05:50:10;;;;;;;7.67;4.30;;;;;;;14.12;96.92;101365.53;5095883;28;20024;-81
2023/05/09 05:52:37;;;;;;;9.13;5.00;;;;;;;14.20;97.76;101362.72;5095680;28;20024;-82
2023/05/09 05:55:05;;;;;;;8.02;4.30;;;;;;;14.26;97.61;101360.00;5096298;28;20422;-81
2023/05/09 05:57:30;;;;;;;7.78;4.32;;;;;;;14.34;97.91;101362.44;5094068;28;20112;-81
2023/05/09 05:59:56;;;;;;;8.47;4.60;;;;;;;14.43;97.22;101364.84;5096070;28;20024;-81
2023/05/09 06:02:21;;;;;;;6.40;4.20;;;;;;;14.49;97.45;101359.47;5095526;28;20024;-81
2023/05/09 06:04:47;;;;;;;8.60;4.90;;;;;;;14.54;95.43;101358.50;5094777;28;20046;-80
2023/05/09 06:07:12;;;;;;;9.60;5.17;;;;;;;14.54;96.15;101353.28;5095726;28;20149;-80
2023/05/09 06:09:38;;;;;;;8.02;4.60;;;;;;;14.63;96.78;101356.53;5095736;28;20455;-80
2023/05/09 06:12:03;;;;;;;8.03;4.80;;;;;;;14.70;95.69;101349.41;5094998;28;20023;-81
2023/05/09 06:14:29;;;;;;;8.57;5.10;;;;;;;14.69;95.46;101339.03;5095267;28;20035;-81
2023/05/09 06:16:55;;;;;;;9.33;4.80;;;;;;;14.74;95.46;101338.00;5095857;28;20460;-83
2023/05/09 06:19:20;;;;;;;10.17;5.00;;;;;;;14.78;95.29;101341.41;5094714;28;20020;-81
2023/05/09 06:21:45;;;;;;;8.70;4.83;;;;;;;14.80;95.52;101331.78;5095897;28;20077;-81
2023/05/09 06:24:11;;;;;;;8.83;4.97;;;;;;;14.81;95.55;101331.72;5095957;28;20055;-81
2023/05/09 06:26:36;;;;;;;11.23;5.90;;;;;;;14.79;95.19;101335.28;5094385;28;20048;-81
2023/05/09 06:29:02;;;;;;;11.10;5.60;;;;;;;14.80;94.62;101334.38;5095251;28;20052;-81
2023/05/09 06:31:28;;;;;;;8.20;4.80;;;;;;;14.81;94.91;101330.88;5095071;28;20035;-81
2023/05/09 06:33:53;;;;;;;6.60;4.15;;;;;;;14.83;95.47;101329.09;5094910;28;20289;-81
2023/05/09 06:36:19;;;;;;;6.83;4.23;;;;;;;14.91;94.69;101327.13;5095606;28;20028;-80
2023/05/09 06:38:44;;;;;;;7.33;4.10;;;;;;;14.94;94.19;101329.69;5094684;28;20384;-80
2023/05/09 06:41:09;;;;;;;4.50;3.30;;;;;;;14.96;94.93;101327.88;5095479;28;20368;-79
2023/05/09 06:43:37;;;;;;;6.83;4.40;;;;;;;14.96;94.20;101316.56;5094776;28;20120;-79
2023/05/09 06:46:02;;;;;;;6.50;3.92;;;;;;;14.95;94.03;101317.44;5094408;28;20027;-80
2023/05/09 06:48:28;;;;;;;7.93;4.47;;;;;;;15.02;94.12;101321.63;5095046;28;20102;-80
2023/05/09 06:50:53;;;;;;;5.33;3.60;;;;;;;15.05;94.48;101324.16;5094875;28;20028;-81
2023/05/09 06:53:18;;;;;;;5.17;3.37;;;;;;;15.10;93.97;101321.41;5093197;28;20383;-80
2023/05/09 06:55:44;;;;;;;5.33;3.50;;;;;;;15.14;94.90;101307.38;5094009;28;20028;-80
2023/05/09 06:58:10;;;;;;;5.53;3.67;;;;;;;15.20;94.44;101308.97;5095263;28;20036;-80
2023/05/09 07:00:35;;;;;;;3.73;2.90;;;;;;;15.24;94.39;101306.22;5094089;28;20016;-80
2023/05/09 07:03:06;;;;;;;4.33;3.00;;;;;;;15.28;94.23;101300.03;5095156;28;20063;-80
2023/05/09 07:05:31;;;;;;;4.40;3.15;;;;;;;15.36;94.62;101301.56;5094693;28;20026;-81
2023/05/09 07:07:56;;;;;;;4.37;3.10;;;;;;;15.43;94.74;101297.84;5094216;28;20431;-80
2023/05/09 07:10:22;;;;;;;6.27;3.57;;;;;;;15.50;94.05;101295.91;5094483;28;20028;-80
2023/05/09 07:12:47;;;;;;;5.17;3.73;;;;;;;15.55;93.61;101296.66;5094393;28;20036;-80
2023/05/09 07:15:15;;;;;;;7.00;4.33;;;;;;;15.52;92.94;101297.63;5093715;28;20028;-80
2023/05/09 07:17:40;;;;;;;8.38;4.35;;;;;;;15.55;93.36;101287.03;5094369;28;20081;-80
2023/05/09 07:20:08;;;;;;;10.93;5.73;;;;;;;15.51;92.59;101281.94;5094568;28;20019;-81
2023/05/09 07:22:39;;;;;;;7.85;4.57;;;;;;;15.48;92.52;101282.06;5093843;28;20085;-80
2023/05/09 07:25:10;;;;;;;8.40;4.35;;;;;;;15.47;93.11;101280.34;5058735;28;20412;-81
2023/05/09 07:27:36;;;;;;;6.97;4.20;;;;;;;15.48;93.03;101285.50;5093434;28;20082;-80
2023/05/09 07:30:05;;;;;;;9.53;5.00;;;;;;;15.43;92.54;101279.53;5093733;28;20430;-80
2023/05/09 07:32:31;;;;;;;8.95;4.95;;;;;;;15.40;92.71;101282.28;5094440;28;20021;-81
2023/05/09 07:34:57;;;;;;;7.37;4.33;;;;;;;15.38;93.08;101279.69;5093556;28;20468;-81
2023/05/09 07:37:22;;;;;;;9.00;4.90;;;;;;;15.33;92.89;101271.13;5094350;28;20049;-81
2023/05/09 07:39:47;;;;;;;7.73;4.60;;;;;;;15.35;92.89;101279.78;5188054;22;20046;-80
2023/05/09 07:42:13;;;;;;;9.17;5.00;;;;;;;15.34;93.24;101278.06;5013426;28;20030;-80
2023/05/09 07:44:38;;;;;;;8.13;4.97;;;;;;;15.35;92.67;101277.16;5014077;28;20033;-80
2023/05/09 07:47:04;;;;;;;8.20;4.80;;;;;;;15.30;93.64;101281.66;5014758;28;20490;-81
2023/05/09 07:49:30;;;;;;;6.65;4.47;;;;;;;15.26;94.75;101267.81;5014468;28;20026;-80
2023/05/09 07:51:55;;;;;;;9.02;5.03;;;;;;;15.19;95.28;101271.50;5014137;28;20519;-81
2023/05/09 07:54:23;;;;;;;8.70;4.90;;;;;;;15.15;94.44;101277.72;5013991;28;20026;-81
2023/05/09 07:56:51;;;;;;;8.07;4.60;;;;;;;15.14;95.14;101276.00;5013288;28;20030;-81
2023/05/09 07:59:17;;;;;;;6.65;4.07;;;;;;;15.08;94.91;101265.72;5033718;28;20029;-81
2023/05/09 08:01:42;;;;;;;7.20;4.67;;;;;;;15.08;95.92;101265.72;5033518;28;20433;-81
2023/05/09 08:04:08;;;;;;;7.60;4.47;;;;;;;15.00;95.79;101260.69;5032577;28;20076;-81
2023/05/09 08:06:34;;;;;;;5.33;3.80;;;;;;;15.02;95.34;101260.66;5033408;28;20053;-81
2023/05/09 08:09:03;;;;;;;8.37;4.43;;;;;;;15.01;96.31;101256.31;5033580;28;20096;-81
2023/05/09 08:11:31;;;;;;;7.65;4.70;;;;;;;15.00;97.97;101249.38;5032368;28;20017;-84
2023/05/09 08:13:56;;;;;;;6.78;4.13;;;;;;;14.95;97.39;101239.03;5033609;28;20053;-84
2023/05/09 08:16:22;;;;;;;4.37;3.33;;;;;;;14.96;96.39;101244.25;5033171;28;20160;-85
2023/05/09 08:18:47;;;;;;;4.60;3.20;;;;;;;15.03;96.64;101236.22;5030618;28;20037;-85
2023/05/09 08:21:17;;;;;;;4.67;3.40;;;;;;;15.07;96.50;101243.94;5025564;28;20090;-86
2023/05/09 08:23:43;;;;;;;7.72;4.40;;;;;;;15.09;97.01;101234.31;5033292;28;20032;-83
2023/05/09 08:26:08;;;;;;;5.47;4.00;;;;;;;15.10;97.01;101228.19;5014533;28;20026;-82
2023/05/09 08:28:33;;;;;;;4.53;3.23;;;;;;;15.17;97.11;101228.88;5033028;28;20025;-82
2023/05/09 08:30:59;;;;;;;5.03;3.20;;;;;;;15.26;97.07;101218.13;5024036;28;20474;-82
2023/05/09 08:33:24;;;;;;;3.10;2.70;;;;;;;15.37;96.93;101222.19;5012365;28;20026;-82
2023/05/09 08:35:51;;;;;;;3.03;2.67;;;;;;;15.44;95.81;101218.47;5013605;28;20072;-82
2023/05/09 08:38:16;;;;;;;3.47;2.90;;;;;;;15.51;96.61;101219.16;5012948;28;20025;-83
2023/05/09 08:40:42;;;;;;;3.17;2.70;;;;;;;15.51;95.94;101213.94;5033208;28;20045;-85
2023/05/09 08:43:08;;;;;;;2.67;2.47;;;;;;;15.54;96.21;101211.22;5023299;28;20018;-83
2023/05/09 08:45:39;;;;;;;3.10;2.70;;;;;;;15.55;95.97;101203.31;5012512;28;20828;-81
2023/05/09 08:48:05;;;;;;;3.17;2.85;;;;;;;15.62;95.73;101213.63;5013298;28;20113;-83
2023/05/09 08:50:31;;;;;;;2.97;2.67;;;;;;;15.65;96.13;101211.75;5012910;28;20034;-82
2023/05/09 08:52:57;;;;;;;4.68;3.38;;;;;;;15.65;95.60;101205.69;5011861;28;20025;-83
2023/05/09 08:55:23;;;;;;;3.77;3.10;;;;;;;15.63;96.32;101204.88;5023133;28;20163;-83
2023/05/09 08:57:48;;;;;;;7.10;4.13;;;;;;;15.59;94.99;101212.81;5032974;28;20056;-83
2023/05/09 09:00:16;;;;;;;4.27;3.20;;;;;;;15.53;95.95;101215.63;5032096;28;20017;-83
2023/05/09 09:02:44;;;;;;;4.13;3.40;;;;;;;15.52;96.08;101206.06;5030498;28;20028;-83
2023/05/09 09:05:10;;;;;;;4.75;3.30;;;;;;;15.50;96.65;101200.00;5012838;28;20040;-84
2023/05/09 09:07:36;;;;;;;4.57;3.73;;;;;;;15.50;97.22;101200.00;5024423;28;20037;-84
2023/05/09 09:10:03;;;;;;;6.70;4.20;;;;;;;15.51;97.00;101203.47;5032732;28;20079;-83
2023/05/09 09:12:28;;;;;;;5.18;3.92;;;;;;;15.51;97.18;101198.25;5032334;28;20113;-86
2023/05/09 09:14:55;;;;;;;7.07;4.60;;;;;;;15.51;97.87;101199.13;5031742;28;20121;-84
2023/05/09 09:17:24;;;;;;;;;;;;;;;15.54;98.27;101195.53;5036580;28;20389;-85
2023/05/09 09:20:04;;;;;;;6.40;4.20;;;;;;;15.51;97.49;101187.78;5024676;28;19917;-85
2023/05/09 09:22:32;;;;;;;5.72;4.00;;;;;;;15.46;95.56;101200.16;5016161;28;20072;-85
2023/05/09 09:25:01;;;;;;;6.18;3.45;;;;;;;15.40;96.32;101188.13;5016828;28;20030;-86
2023/05/09 09:27:27;;;;;;;5.38;3.45;;;;;;;15.33;95.64;101187.44;5015776;28;20605;-85
2023/05/09 09:29:52;;;;;;;4.10;3.20;;;;;;;15.19;95.72;101182.63;5011840;28;20121;-85
2023/05/09 09:32:18;;;;;;;4.40;3.07;;;;;;;15.14;96.40;101182.72;5031022;28;20029;-86
2023/05/09 09:34:48;;;;;;;3.70;2.90;;;;;;;15.17;96.54;101181.81;5035513;28;20025;-86
2023/05/09 09:37:21;;;;;;;2.90;2.60;;;;;;;15.10;95.91;101178.50;5036694;28;20049;-87
2023/05/09 09:39:54;;;;;;;3.17;2.50;;;;;;;15.10;96.31;101180.25;5028365;28;20104;-87
2023/05/09 09:42:20;;;;;;;3.22;2.17;;;;;;;15.11;96.50;101181.97;5015871;28;20088;-87
2023/05/09 09:44:54;;;;;;;5.07;2.45;;;;;;;15.11;96.69;101164.53;5020962;28;20097;-86
2023/05/09 09:47:30;;;;;;;4.15;2.75;;;;;;;15.20;95.89;101176.47;5013181;28;20030;-86
2023/05/09 09:49:55;;;;;;;3.17;2.72;;;;;;;15.13;96.33;101170.59;5015170;28;20061;-87
2023/05/09 09:52:24;;;;;;;4.37;2.90;;;;;;;15.14;95.76;101176.66;5014979;28;20091;-86
2023/05/09 09:54:53;;;;;;;3.28;2.60;;;;;;;15.12;96.97;101165.38;5019607;28;20481;-86
2023/05/09 09:57:36;;;;;;;3.00;2.70;;;;;;;15.12;97.33;101160.16;5035482;28;20469;-86
2023/05/09 10:00:03;;;;;;;2.70;2.35;;;;;;;15.15;97.12;101162.69;5036218;28;20034;-87
2023/05/09 10:02:46;;;;;;;4.30;2.42;;;;;;;15.25;96.13;101158.91;5033723;28;20083;-86
2023/05/09 10:05:17;;;;;;;3.40;2.63;;;;;;;15.28;95.77;101158.81;5015936;28;20040;-85
2023/05/09 10:07:42;;;;;;;3.22;2.58;;;;;;;15.28;96.97;101147.47;5023902;28;20071;-86
2023/05/09 10:10:08;;;;;;;2.63;2.40;;;;;;;15.32;96.85;101154.34;5035108;28;20033;-86
2023/05/09 10:12:35;;;;;;;3.05;2.72;;;;;;;15.30;97.01;101148.31;5034870;28;20132;-86
2023/05/09 10:15:05;;;;;;;2.60;2.40;;;;;;;15.32;96.34;101151.72;5035854;28;20379;-86
2023/05/09 10:17:31;;;;;;;2.92;2.63;;;;;;;15.31;96.92;101149.16;5035117;28;20437;-86
2023/05/09 10:20:03;;;;;;;2.83;2.50;;;;;;;15.30;98.29;101140.47;5023386;28;20101;-87
2023/05/09 10:22:29;;;;;;;4.18;2.95;;;;;;;15.29;96.79;101150.06;5015321;28;20470;-86
2023/05/09 10:25:31;;;;;;;3.03;2.60;;;;;;;15.25;97.17;101140.59;5015618;28;20069;-85
2023/05/09 10:27:59;;;;;;;4.00;2.80;;;;;;;15.20;98.14;101137.25;4984338;28;20061;-85
2023/05/09 10:30:34;;;;;;;3.05;2.40;;;;;;;15.21;97.20;101136.34;5015655;28;20037;-85
2023/05/09 10:33:07;;;;;;;4.22;2.80;;;;;;;15.22;97.13;101134.59;5030973;28;20049;-84
2023/05/09 10:35:36;;;;;;;2.90;2.50;;;;;;;15.23;97.22;101131.09;5019681;28;20060;-84
2023/05/09 10:38:01;;;;;;;3.17;2.53;;;;;;;15.30;96.81;101135.22;5034956;28;20028;-85
2023/05/09 10:40:33;;;;;;;4.10;2.90;;;;;;;15.23;97.90;101123.25;5035304;28;20399;-86
2023/05/09 10:42:58;;;;;;;2.95;2.50;;;;;;;15.21;98.64;101118.06;5033431;28;20536;-85
2023/05/09 10:45:24;;;;;;;3.40;2.70;;;;;;;15.20;98.53;101118.09;5034163;28;20109;-84
2023/05/09 10:47:51;;;;;;;3.47;3.05;;;;;;;15.13;98.22;101109.59;5035204;28;20029;-86
2023/05/09 10:50:17;;;;;;;3.78;2.70;;;;;;;15.14;97.07;101109.53;5035335;28;20025;-86
2023/05/09 10:53:02;;;;;;;3.17;2.72;;;;;;;15.16;97.79;101111.25;5034281;28;20413;-86
2023/05/09 10:55:55;;;;;;;3.08;2.67;;;;;;;15.18;98.52;101106.84;5024663;28;20084;-85
2023/05/09 10:58:22;;;;;;;3.88;2.58;;;;;;;15.20;98.76;101108.50;5027531;28;20037;-85
2023/05/09 11:00:49;;;;;;;2.63;2.30;;;;;;;15.21;98.21;101102.38;5034332;28;20080;-86
2023/05/09 11:03:17;;;;;;;2.42;2.22;;;;;;;15.30;97.98;101101.22;5034831;28;20025;-86
2023/05/09 11:05:42;;;;;;;3.33;2.80;;;;;;;15.29;99.62;101095.16;5022742;28;20494;-85
2023/05/09 11:08:21;;;;;;;3.50;2.70;;;;;;;15.26;100.00;101095.25;5015382;28;20075;-86
2023/05/09 11:10:47;;;;;;;5.32;3.40;;;;;;;15.18;99.74;101093.75;5015298;28;20014;-85
2023/05/09 11:13:17;;;;;;;3.78;3.00;;;;;;;15.07;98.58;101088.88;5014616;28;20030;-86
2023/05/09 11:15:50;;;;;;;4.53;3.72;;;;;;;15.02;100.00;101088.16;5016252;28;20029;-87
2023/05/09 11:18:15;;;;;;;3.22;2.80;;;;;;;15.00;100.00;101084.72;5033347;28;20444;-87
2023/05/09 11:20:47;;;;;;;4.47;3.33;;;;;;;15.00;100.00;101079.50;5035229;28;20060;-86
2023/05/09 11:23:16;;;;;;;4.63;3.00;;;;;;;14.98;100.00;101072.56;5034710;28;20021;-87
2023/05/09 11:25:45;;;;;;;3.33;2.75;;;;;;;15.02;99.94;101075.06;5034633;28;20100;-88